Hovedside
METAR-TAF:

METAR-TAF

Lufthavner :

Københavns lufthavn

København, Danmark

breddegrad: 55-37N, lengdegrad: 012-39E, høyde over havet: 5 m

Gjeldene værobservasjon

Denne rapporten ble laget for 43 minutter siden, klokken 13:50 UTC
Vind 12 kt fra Nord
Temperatur 24°C
Luftfuktighet 69%
Trykk 1013 hPa
Sikt 10 km eller mer
Få skyer i en høyde av 3600 ft
Brutte skyer i en høyde av 25000 ft

METAR: EKCH 181350Z 01012KT 9999 FEW036 BKN250 24/18 Q1013 NOSIG

Tid: 16:33 (14:33 UTC)

Varsel

Denne rapporten ble laget for 3 timer og 30 minutter siden, klokken 11:03 UTC
Varsel gyldig fra 18. klokken 12 UTC til 19. klokken 12 UTC
Vind 10 kt fra Nord
Sikt 10 km eller mer
ingen skyer under 1500 m og ingen bygeskyer
Sannsynlighet 40% :
Midlertidig
fra 19. klokken 00 UTC til 19. klokken 06 UTC
Spredte skyer i en høyde av 4000 ft, Bygeskyer.
regnbyger

TAF: EKCH 181103Z 1812/1912 35010KT CAVOK PROB40 TEMPO 1900/1906 SHRA SCT040CB

Værobservasjoner og værvarsel for over 4000 flyplasser (METAR- og TAF-rapporter).

Tilgjengelige stasjoner er representert av de røde og gule prikkene på kartet.

Hold musepekeren over prikken for å se navnet på stasjonen.

Klikk så for å se værobservasjoner og -varsler.

For å forandre kartet kan du klikke på den grønne knappen med svart kryss for å zoome inn, på den grønne knappen med strek for å zoome ut, eller på de grønne pilene for å se tilstøtende kart.


METAR-TAF: